createdAt,value
2022-08-17T00:02:26.058Z,100819.84
2022-08-17T00:04:57.859Z,100819.84
2022-08-17T00:07:24.418Z,100819.84
2022-08-17T00:09:50.918Z,100809.88
2022-08-17T00:12:43.098Z,100809.44
2022-08-17T00:15:10.314Z,100806.03
2022-08-17T00:17:37.804Z,100803.50
2022-08-17T00:20:05.042Z,100792.91
2022-08-17T00:22:36.081Z,100799.69
2022-08-17T00:25:10.286Z,100799.06
2022-08-17T00:27:37.128Z,100792.06
2022-08-17T00:30:06.774Z,100786.97
2022-08-17T00:33:12.651Z,100791.84
2022-08-17T00:35:30.312Z,100791.84
2022-08-17T00:37:56.824Z,100788.25
2022-08-17T00:40:24.934Z,100796.50
2022-08-17T00:42:52.618Z,100791.00
2022-08-17T00:45:21.130Z,100785.06
2022-08-17T00:47:48.008Z,100783.59
2022-08-17T00:50:17.665Z,100785.69
2022-08-17T00:52:56.355Z,100777.88
2022-08-17T00:55:25.504Z,100783.38
2022-08-17T00:57:56.860Z,100781.88
2022-08-17T01:00:33.503Z,100773.63
2022-08-17T01:03:19.803Z,100774.88
2022-08-17T01:05:51.312Z,100775.72
2022-08-17T01:08:22.209Z,100782.47
2022-08-17T01:11:00.186Z,100775.28
2022-08-17T01:13:40.811Z,100772.75
2022-08-17T01:16:18.124Z,100771.47
2022-08-17T01:18:48.139Z,100766.59
2022-08-17T01:21:24.534Z,100767.22
2022-08-17T01:23:56.324Z,100771.44
2022-08-17T01:26:23.613Z,100767.22
2022-08-17T01:28:53.934Z,100762.13
2022-08-17T01:31:24.166Z,100775.03
2022-08-17T01:33:53.084Z,100761.69
2022-08-17T01:36:19.743Z,100749.22
2022-08-17T01:38:46.363Z,100752.38
2022-08-17T01:41:16.483Z,100745.56
2022-08-17T01:43:51.982Z,100737.31
2022-08-17T01:46:26.996Z,100740.47
2022-08-17T01:48:54.264Z,100735.38
2022-08-17T01:51:21.734Z,100734.75
2022-08-17T01:53:52.576Z,100733.91
2022-08-17T01:56:22.473Z,100736.22
2022-08-17T01:58:49.002Z,100739.38
2022-08-17T02:01:18.954Z,100734.94
2022-08-17T02:03:53.147Z,100744.00
2022-08-17T02:06:27.503Z,100748.66
2022-08-17T02:09:01.477Z,100745.91
2022-08-17T02:11:30.479Z,100745.50
2022-08-17T02:14:03.592Z,100743.59
2022-08-17T02:16:37.110Z,100742.31
2022-08-17T02:19:11.069Z,100731.75
2022-08-17T02:21:38.938Z,100735.72
2022-08-17T02:24:13.237Z,100730.84
2022-08-17T02:26:39.906Z,100739.50
2022-08-17T02:29:07.228Z,100736.31
2022-08-17T02:31:35.474Z,100732.91
2022-08-17T02:34:06.145Z,100730.56
2022-08-17T02:36:36.368Z,100729.28
2022-08-17T02:39:05.460Z,100728.44
2022-08-17T02:41:32.793Z,100724.84
2022-08-17T02:43:59.497Z,100728.66
2022-08-17T02:46:26.265Z,100722.50
2022-08-17T02:48:52.810Z,100722.72
2022-08-17T02:51:19.417Z,100719.31
2022-08-17T02:53:46.736Z,100717.84
2022-08-17T02:56:13.682Z,100712.75
2022-08-17T02:58:40.198Z,100718.44
2022-08-17T03:01:10.009Z,100704.72
2022-08-17T03:03:38.823Z,100707.66
2022-08-17T03:06:07.355Z,100693.94
2022-08-17T03:08:34.757Z,100694.16
2022-08-17T03:11:01.611Z,100698.59
2022-08-17T03:13:30.740Z,100699.44
2022-08-17T03:15:57.317Z,100708.72
2022-08-17T03:18:26.299Z,100711.47
2022-08-17T03:20:59.341Z,100713.16
2022-08-17T03:23:31.095Z,100708.72
2022-08-17T03:25:58.790Z,100711.47
2022-08-17T03:28:26.047Z,100710.63
2022-08-17T03:30:52.889Z,100709.78
2022-08-17T03:33:21.497Z,100709.56
2022-08-17T03:35:48.371Z,100707.88
2022-08-17T03:38:17.008Z,100715.06
2022-08-17T03:40:56.997Z,100715.06
2022-08-17T03:43:32.271Z,100714.00
2022-08-17T03:46:34.266Z,100715.50
2022-08-17T03:49:26.240Z,100710.84
2022-08-17T03:52:15.882Z,100713.59
2022-08-17T03:55:02.066Z,100718.25
2022-08-17T03:57:29.166Z,100713.81
2022-08-17T03:59:56.294Z,100717.59
2022-08-17T04:02:29.618Z,100713.16
2022-08-17T04:04:56.723Z,100720.56
2022-08-17T04:07:26.180Z,100724.78
2022-08-17T04:09:52.852Z,100726.69
2022-08-17T04:12:22.026Z,100727.75
2022-08-17T04:14:54.980Z,100725.00
2022-08-17T04:17:28.322Z,100724.16
2022-08-17T04:19:55.609Z,100727.75
2022-08-17T04:22:30.978Z,100734.28
2022-08-17T04:25:05.075Z,100734.28
2022-08-17T04:27:31.727Z,100732.78
2022-08-17T04:29:58.705Z,100736.09
2022-08-17T04:33:00.767Z,100727.63
2022-08-17T04:35:18.797Z,100732.47
2022-08-17T04:37:45.407Z,100731.00
2022-08-17T04:40:30.626Z,100730.59
2022-08-17T04:43:30.881Z,100727.19
2022-08-17T04:46:00.533Z,100731.63
2022-08-17T04:48:36.365Z,100731.63
2022-08-17T04:51:11.246Z,100743.91
2022-08-17T04:53:45.190Z,100739.91
2022-08-17T04:56:16.655Z,100738.66
2022-08-17T04:58:49.730Z,100742.72
2022-08-17T05:01:23.457Z,100756.69
2022-08-17T05:03:54.295Z,100756.06
2022-08-17T05:06:21.330Z,100770.25
2022-08-17T05:08:47.934Z,100784.63
2022-08-17T05:11:14.945Z,100814.19
2022-08-17T05:13:41.958Z,100824.94
2022-08-17T05:16:09.140Z,100810.56
2022-08-17T05:18:37.230Z,100783.72
2022-08-17T05:21:04.334Z,100798.03
2022-08-17T05:23:42.524Z,100796.31
2022-08-17T05:26:26.387Z,100805.44
2022-08-17T05:29:02.607Z,100825.66
2022-08-17T05:31:30.811Z,100814.50
2022-08-17T05:34:01.795Z,100795.66
2022-08-17T05:36:42.446Z,100797.34
2022-08-17T05:39:16.462Z,100806.28
2022-08-17T05:41:45.768Z,100817.69
2022-08-17T05:44:14.290Z,100827.03
2022-08-17T05:46:44.050Z,100814.59
2022-08-17T05:49:13.163Z,100804.06
2022-08-17T05:52:18.801Z,100798.38
2022-08-17T05:55:10.463Z,100793.06
2022-08-17T05:58:03.924Z,100789.69
2022-08-17T06:00:42.100Z,100794.31
2022-08-17T06:03:49.367Z,100791.56
2022-08-17T06:06:31.545Z,100776.78
2022-08-17T06:08:58.150Z,100772.34
2022-08-17T06:11:36.927Z,100770.47
2022-08-17T06:14:09.866Z,100783.56
2022-08-17T06:16:44.016Z,100785.91
2022-08-17T06:19:32.046Z,100775.38
2022-08-17T06:22:00.503Z,100777.50
2022-08-17T06:24:44.037Z,100787.25
2022-08-17T06:27:38.769Z,100795.91
2022-08-17T06:30:25.762Z,100798.06
2022-08-17T06:32:55.372Z,100797.69
2022-08-17T06:35:31.888Z,100804.66
2022-08-17T06:38:33.955Z,100797.50
2022-08-17T06:41:04.249Z,100801.78
2022-08-17T06:44:03.051Z,100797.34
2022-08-17T06:46:41.399Z,100793.19
2022-08-17T06:49:21.886Z,100792.38
2022-08-17T06:51:57.358Z,100802.31
2022-08-17T06:54:40.608Z,100805.94
2022-08-17T06:57:23.219Z,100808.50
2022-08-17T06:59:59.236Z,100809.78
2022-08-17T07:03:02.681Z,100804.75
2022-08-17T07:05:36.514Z,100807.50
2022-08-17T07:08:14.581Z,100817.88
2022-08-17T07:10:47.549Z,100811.31
2022-08-17T07:13:25.496Z,100809.22
2022-08-17T07:15:58.939Z,100809.22
2022-08-17T07:18:29.685Z,100829.09
2022-08-17T07:21:08.362Z,100830.59
2022-08-17T07:24:01.041Z,100824.22
2022-08-17T07:26:28.569Z,100834.19
2022-08-17T07:28:58.433Z,100845.81
2022-08-17T07:31:28.496Z,100845.19
2022-08-17T07:34:22.979Z,100842.88
2022-08-17T07:37:03.376Z,100846.72
2022-08-17T07:39:30.322Z,100846.94
2022-08-17T07:42:05.086Z,100848.22
2022-08-17T07:44:50.407Z,100845.69
2022-08-17T07:47:35.959Z,100849.28
2022-08-17T07:50:03.023Z,100841.22
2022-08-17T07:52:50.524Z,100841.47
2022-08-17T07:55:34.981Z,100845.91
2022-08-17T07:58:01.982Z,100861.38
2022-08-17T08:00:31.961Z,100862.44
2022-08-17T08:03:05.554Z,100865.59
2022-08-17T08:05:50.037Z,100873.22
2022-08-17T08:08:24.317Z,100880.22
2022-08-17T08:11:04.546Z,100889.53
2022-08-17T08:13:42.436Z,100907.97
2022-08-17T08:16:24.551Z,100932.16
2022-08-17T08:18:58.335Z,100932.34
2022-08-17T08:21:46.345Z,100927.69
2022-08-17T08:24:43.495Z,100900.34
2022-08-17T08:27:28.246Z,100849.72
2022-08-17T08:29:55.188Z,100806.50
2022-08-17T08:32:53.977Z,100783.00
2022-08-17T08:35:53.584Z,100808.66
2022-08-17T08:38:28.228Z,100822.38
2022-08-17T08:41:16.437Z,100820.28
2022-08-17T08:44:12.104Z,100838.69
2022-08-17T08:47:00.722Z,100857.97
2022-08-17T08:50:03.449Z,100866.00
2022-08-17T08:52:31.001Z,100860.97
2022-08-17T08:55:08.626Z,100854.59
2022-08-17T08:57:47.118Z,100834.06
2022-08-17T09:00:15.970Z,100839.31
2022-08-17T09:03:20.094Z,100842.09
2022-08-17T09:06:33.352Z,100848.22
2022-08-17T09:09:18.054Z,100854.78
2022-08-17T09:12:02.412Z,100844.94
2022-08-17T09:15:21.523Z,100857.00
2022-08-17T09:19:00.418Z,100868.44
2022-08-17T09:21:28.735Z,100873.94
2022-08-17T09:24:21.003Z,100875.19
2022-08-17T09:27:20.110Z,100873.88
2022-08-17T09:29:58.384Z,100878.94
2022-08-17T09:32:34.057Z,100879.97
2022-08-17T09:35:16.142Z,100882.28
2022-08-17T09:38:05.910Z,100881.63
2022-08-17T09:40:45.004Z,100889.69
2022-08-17T09:43:49.124Z,100891.38
2022-08-17T09:46:34.692Z,100896.41
2022-08-17T09:49:31.488Z,100908.88
2022-08-17T09:52:05.649Z,100922.41
2022-08-17T09:54:39.660Z,100928.56
2022-08-17T09:57:31.489Z,100943.44
2022-08-17T10:00:10.042Z,100952.16
2022-08-17T10:03:29.863Z,100952.16
2022-08-17T10:06:13.296Z,100947.03
2022-08-17T10:08:52.985Z,100944.28
2022-08-17T10:12:10.253Z,100954.06
2022-08-17T10:15:05.069Z,100959.81
2022-08-17T10:17:50.590Z,100958.34
2022-08-17T10:20:25.563Z,100970.91
2022-08-17T10:23:22.453Z,100957.31
2022-08-17T10:26:04.570Z,100959.69
2022-08-17T10:28:44.252Z,100960.56
2022-08-17T10:31:34.226Z,100955.69
2022-08-17T10:34:38.694Z,100956.34
2022-08-17T10:37:28.263Z,100954.88
2022-08-17T10:40:26.463Z,100959.56
2022-08-17T10:43:44.711Z,100954.91
2022-08-17T10:46:57.406Z,100949.03
2022-08-17T10:49:32.552Z,100946.03
2022-08-17T10:52:03.514Z,100947.31
2022-08-17T10:54:45.428Z,100947.75
2022-08-17T10:57:27.325Z,100936.94
2022-08-17T10:59:58.467Z,100929.50
2022-08-17T11:02:49.349Z,100925.28
2022-08-17T11:05:28.927Z,100919.94
2022-08-17T11:08:19.471Z,100923.13
2022-08-17T11:11:06.690Z,100918.69
2022-08-17T11:13:48.395Z,100921.25
2022-08-17T11:16:40.849Z,100920.84
2022-08-17T11:19:13.101Z,100925.72
2022-08-17T11:22:12.100Z,100924.69
2022-08-17T11:24:48.028Z,100942.28
2022-08-17T11:27:31.715Z,100941.44
2022-08-17T11:30:03.279Z,100931.03
2022-08-17T11:32:33.327Z,100940.56
2022-08-17T11:35:45.035Z,100948.84
2022-08-17T11:38:16.024Z,100953.94
2022-08-17T11:41:18.673Z,100948.00
2022-08-17T11:44:24.713Z,100950.13
2022-08-17T11:47:41.167Z,100956.28
2022-08-17T11:50:35.615Z,100952.25
2022-08-17T11:53:07.051Z,100960.94
2022-08-17T11:55:38.555Z,100966.03
2022-08-17T11:58:38.573Z,100973.66
2022-08-17T12:01:23.261Z,100985.56
2022-08-17T12:03:58.754Z,100984.91
2022-08-17T12:06:46.635Z,100991.50
2022-08-17T12:09:22.117Z,100998.06
2022-08-17T12:12:13.461Z,101001.06
2022-08-17T12:17:40.193Z,101012.91
2022-08-17T12:20:31.680Z,101012.69
2022-08-17T12:23:30.208Z,101013.75
2022-08-17T12:26:19.796Z,101017.78
2022-08-17T12:28:57.201Z,101016.94
2022-08-17T12:31:31.108Z,101020.13
2022-08-17T12:34:03.914Z,101007.16
2022-08-17T12:36:31.984Z,101008.44
2022-08-17T12:39:14.317Z,100998.47
2022-08-17T12:41:52.040Z,100997.41
2022-08-17T12:44:23.124Z,101001.22
2022-08-17T12:46:53.178Z,100994.47
2022-08-17T12:49:24.625Z,100991.06
2022-08-17T12:51:56.950Z,100995.75
2022-08-17T12:54:31.575Z,100993.84
2022-08-17T12:57:05.456Z,100988.34
2022-08-17T12:59:33.059Z,100985.38
2022-08-17T13:02:00.887Z,100985.16
2022-08-17T13:04:29.512Z,100978.38
2022-08-17T13:06:58.205Z,100986.66
2022-08-17T13:09:35.334Z,100984.72
2022-08-17T13:12:03.291Z,100977.09
2022-08-17T13:14:32.684Z,100977.53
2022-08-17T13:17:07.153Z,100985.59
2022-08-17T13:19:47.974Z,100996.56
2022-08-17T13:22:14.666Z,100991.69
2022-08-17T13:25:09.211Z,100992.53
2022-08-17T13:27:36.044Z,100995.72
2022-08-17T13:30:11.590Z,100997.63
2022-08-17T13:32:46.474Z,100998.69
2022-08-17T13:35:32.223Z,101002.28
2022-08-17T13:38:12.502Z,100997.63
2022-08-17T13:40:52.927Z,100995.69
2022-08-17T13:43:48.435Z,100995.28
2022-08-17T13:46:21.511Z,100988.50
2022-08-17T13:49:01.910Z,100984.47
2022-08-17T13:51:35.467Z,100986.16
2022-08-17T13:54:06.510Z,100985.09
2022-08-17T13:56:40.742Z,100976.00
2022-08-17T13:59:14.653Z,100971.13
2022-08-17T14:01:48.474Z,100970.28
2022-08-17T14:04:27.758Z,100968.59
2022-08-17T14:07:01.188Z,100974.72
2022-08-17T14:09:37.185Z,100972.81
2022-08-17T14:12:08.841Z,100974.94
2022-08-17T14:14:40.706Z,100974.28
2022-08-17T14:17:07.983Z,100977.91
2022-08-17T14:19:35.114Z,100977.69
2022-08-17T14:22:02.107Z,100975.56
2022-08-17T14:24:32.690Z,100977.91
2022-08-17T14:27:01.450Z,100978.34
2022-08-17T14:29:29.780Z,100978.13
2022-08-17T14:31:57.765Z,100970.69
2022-08-17T14:34:25.236Z,100974.72
2022-08-17T14:36:52.314Z,100967.94
2022-08-17T14:39:19.150Z,100969.84
2022-08-17T14:41:46.310Z,100975.38
2022-08-17T14:44:13.941Z,100965.81
2022-08-17T14:46:42.886Z,100965.81
2022-08-17T14:49:11.446Z,100959.41
2022-08-17T14:51:43.533Z,100958.34
2022-08-17T14:54:33.552Z,100956.00
2022-08-17T14:57:24.745Z,100954.94
2022-08-17T14:59:50.707Z,100954.94
2022-08-17T15:02:29.276Z,100949.03
2022-08-17T15:05:03.959Z,100950.06
2022-08-17T15:07:31.525Z,100955.34
2022-08-17T15:10:00.914Z,100963.59
2022-08-17T15:12:32.242Z,100966.78
2022-08-17T15:15:00.816Z,100968.06
2022-08-17T15:17:44.662Z,100969.13
2022-08-17T15:20:25.272Z,100959.41
2022-08-17T15:22:55.927Z,100960.03
2022-08-17T15:25:25.125Z,100961.53
2022-08-17T15:27:52.167Z,100962.84
2022-08-17T15:30:19.155Z,100963.28
2022-08-17T15:32:51.597Z,100959.25
2022-08-17T15:35:27.383Z,100962.63
2022-08-17T15:37:56.430Z,100967.31
2022-08-17T15:40:23.007Z,100973.88
2022-08-17T15:42:51.015Z,100965.41
2022-08-17T15:45:24.819Z,100960.72
2022-08-17T15:47:52.528Z,100964.13
2022-08-17T15:50:19.426Z,100962.41
2022-08-17T15:52:47.457Z,100964.53
2022-08-17T15:55:15.499Z,100967.31
2022-08-17T15:57:42.305Z,100967.09
2022-08-17T16:00:09.692Z,100964.78
2022-08-17T16:03:44.913Z,100963.28
2022-08-17T16:05:28.572Z,100960.31
2022-08-17T16:07:59.569Z,100959.69
2022-08-17T16:10:35.494Z,100958.00
2022-08-17T16:13:17.553Z,100960.97
2022-08-17T16:15:47.794Z,100961.81
2022-08-17T16:18:20.507Z,100955.44
2022-08-17T16:20:47.237Z,100951.44
2022-08-17T16:23:20.080Z,100962.22
2022-08-17T16:25:53.684Z,100973.69
2022-08-17T16:28:21.792Z,100981.94
2022-08-17T16:30:48.282Z,100981.31
2022-08-17T16:33:16.922Z,100975.38
2022-08-17T16:35:43.490Z,100985.75
2022-08-17T16:38:10.854Z,100983.00
2022-08-17T16:40:38.038Z,100972.81
2022-08-17T16:43:12.010Z,100973.25
2022-08-17T16:45:39.929Z,100963.72
2022-08-17T16:48:08.356Z,100966.88
2022-08-17T16:50:35.462Z,100969.22
2022-08-17T16:53:11.160Z,100969.84
2022-08-17T16:55:38.462Z,100974.88
2022-08-17T16:58:06.459Z,100972.53
2022-08-17T17:00:33.629Z,100979.31
2022-08-17T17:03:26.054Z,100979.94
2022-08-17T17:06:01.674Z,100979.09
2022-08-17T17:08:55.884Z,100978.88
2022-08-17T17:11:31.234Z,100986.06
2022-08-17T17:14:09.058Z,100977.81
2022-08-17T17:16:47.714Z,100980.78
2022-08-17T17:19:35.183Z,100990.50
2022-08-17T17:22:16.339Z,100989.44
2022-08-17T17:25:14.370Z,100989.84
2022-08-17T17:27:59.694Z,100983.06
2022-08-17T17:30:33.103Z,100977.34
2022-08-17T17:33:29.733Z,100985.81
2022-08-17T17:36:07.219Z,100986.47
2022-08-17T17:38:49.450Z,100991.75
2022-08-17T17:41:26.342Z,100980.97
2022-08-17T17:44:01.834Z,100984.97
2022-08-17T17:46:37.943Z,100989.84
2022-08-17T17:49:05.876Z,100993.81
2022-08-17T17:51:55.054Z,101000.00
2022-08-17T17:54:49.160Z,101000.78
2022-08-17T17:57:44.192Z,100995.91
2022-08-17T18:01:04.695Z,101012.63
2022-08-17T18:04:01.466Z,101018.75
2022-08-17T18:06:49.846Z,101025.31
2022-08-17T18:09:38.389Z,101024.00
2022-08-17T18:12:19.768Z,101031.41
2022-08-17T18:15:00.113Z,101039.88
2022-08-17T18:17:29.139Z,101037.72
2022-08-17T18:19:56.107Z,101035.59
2022-08-17T18:22:23.735Z,101034.69
2022-08-17T18:24:57.995Z,101040.59
2022-08-17T18:27:36.568Z,101041.84
2022-08-17T18:30:27.208Z,101044.53
2022-08-17T18:32:53.810Z,101042.19
2022-08-17T18:35:21.680Z,101043.44
2022-08-17T18:37:50.299Z,101036.25
2022-08-17T18:40:26.447Z,101033.72
2022-08-17T18:43:52.659Z,101024.97
2022-08-17T18:46:28.194Z,101022.75
2022-08-17T18:49:06.750Z,101024.59
2022-08-17T18:51:43.306Z,101028.78
2022-08-17T18:54:23.404Z,101029.84
2022-08-17T18:56:56.642Z,101033.84
2022-08-17T18:59:28.888Z,101039.72
2022-08-17T19:02:24.928Z,101051.13
2022-08-17T19:05:07.945Z,101057.16
2022-08-17T19:07:44.258Z,101059.66
2022-08-17T19:10:51.323Z,101056.84
2022-08-17T19:13:28.470Z,101049.22
2022-08-17T19:16:14.671Z,101047.06
2022-08-17T19:19:19.566Z,101064.97
2022-08-17T19:22:17.009Z,101061.75
2022-08-17T19:25:05.967Z,101058.38
2022-08-17T19:28:03.071Z,101063.59
2022-08-17T19:30:30.102Z,101065.88
2022-08-17T19:33:05.460Z,101062.00
2022-08-17T19:35:46.598Z,101071.66
2022-08-17T19:38:44.559Z,101074.97
2022-08-17T19:41:25.645Z,101078.97
2022-08-17T19:44:16.970Z,101081.44
2022-08-17T19:46:56.218Z,101079.28
2022-08-17T19:49:48.988Z,101078.78
2022-08-17T19:52:23.995Z,101070.28
2022-08-17T19:55:16.931Z,101073.41
2022-08-17T19:58:18.010Z,101077.19
2022-08-17T20:00:50.597Z,101085.63
2022-08-17T20:03:38.463Z,101079.66
2022-08-17T20:06:13.179Z,101078.81
2022-08-17T20:08:53.727Z,101083.44
2022-08-17T20:11:31.389Z,101087.44
2022-08-17T20:14:14.320Z,101084.22
2022-08-17T20:16:41.170Z,101083.09
2022-08-17T20:19:19.715Z,101088.47
2022-08-17T20:21:53.904Z,101101.25
2022-08-17T20:24:52.949Z,101094.63
2022-08-17T20:27:31.331Z,101093.94
2022-08-17T20:30:11.516Z,101096.88
2022-08-17T20:32:48.535Z,101096.22
2022-08-17T20:35:16.834Z,101100.19
2022-08-17T20:37:53.274Z,101087.78
2022-08-17T20:40:25.925Z,101090.50
2022-08-17T20:42:52.811Z,101095.75
2022-08-17T20:45:23.336Z,101094.13
2022-08-17T20:48:21.619Z,101090.91
2022-08-17T20:50:51.350Z,101084.03
2022-08-17T20:53:58.254Z,101084.13
2022-08-17T20:56:43.335Z,101078.09
2022-08-17T20:59:30.412Z,101070.25
2022-08-17T21:02:18.425Z,101070.63
2022-08-17T21:04:52.886Z,101073.91
2022-08-17T21:07:43.499Z,101074.94
2022-08-17T21:10:10.276Z,101080.06
2022-08-17T21:12:52.714Z,101078.84
2022-08-17T21:15:44.314Z,101073.66
2022-08-17T21:18:19.786Z,101077.06
2022-08-17T21:21:03.619Z,101068.84
2022-08-17T21:24:04.090Z,101071.38
2022-08-17T21:26:57.665Z,101077.06
2022-08-17T21:29:31.310Z,101086.13
2022-08-17T21:31:59.543Z,101078.00
2022-08-17T21:34:34.691Z,101087.88
2022-08-17T21:37:19.834Z,101087.28
2022-08-17T21:39:54.962Z,101090.72
2022-08-17T21:42:34.362Z,101092.13
2022-08-17T21:45:10.087Z,101101.56
2022-08-17T21:47:40.858Z,101107.72
2022-08-17T21:50:21.798Z,101109.41
2022-08-17T21:52:50.007Z,101102.72
2022-08-17T21:55:21.967Z,101101.69
2022-08-17T21:57:52.761Z,101093.28
2022-08-17T22:00:32.135Z,101100.28
2022-08-17T22:03:23.793Z,101102.03
2022-08-17T22:05:51.340Z,101100.44
2022-08-17T22:08:22.266Z,101102.97
2022-08-17T22:10:51.111Z,101103.47
2022-08-17T22:13:29.352Z,101105.84
2022-08-17T22:16:05.931Z,101114.53
2022-08-17T22:18:53.695Z,101120.50
2022-08-17T22:21:20.725Z,101121.34
2022-08-17T22:24:20.305Z,101123.25
2022-08-17T22:27:03.489Z,101120.97
2022-08-17T22:29:53.206Z,101112.38
2022-08-17T22:32:35.319Z,101115.13
2022-08-17T22:35:32.874Z,101124.38
2022-08-17T22:38:32.412Z,101121.47
2022-08-17T22:41:26.745Z,101119.19
2022-08-17T22:43:57.378Z,101119.69
2022-08-17T22:46:25.540Z,101119.31
2022-08-17T22:48:56.724Z,101112.97
2022-08-17T22:51:28.354Z,101115.34
2022-08-17T22:54:20.222Z,101119.22
2022-08-17T22:57:18.602Z,101116.31
2022-08-17T22:59:50.470Z,101108.59
2022-08-17T23:02:26.561Z,101111.81
2022-08-17T23:05:15.686Z,101110.94
2022-08-17T23:07:44.581Z,101112.28
2022-08-17T23:10:12.637Z,101113.78
2022-08-17T23:12:39.907Z,101117.00
2022-08-17T23:15:14.763Z,101128.47
2022-08-17T23:17:42.075Z,101126.00
2022-08-17T23:20:14.007Z,101122.22
2022-08-17T23:22:51.071Z,101120.34
2022-08-17T23:25:31.911Z,101114.88
2022-08-17T23:28:01.579Z,101115.78
2022-08-17T23:30:31.276Z,101116.53
2022-08-17T23:33:25.591Z,101119.19
2022-08-17T23:35:53.064Z,101117.34
2022-08-17T23:38:19.669Z,101118.94
2022-08-17T23:40:46.170Z,101124.78
2022-08-17T23:43:23.693Z,101124.78
2022-08-17T23:45:55.249Z,101132.66
2022-08-17T23:48:35.115Z,101128.69
2022-08-17T23:51:12.291Z,101126.41
2022-08-17T23:53:47.278Z,101128.63
2022-08-17T23:56:14.653Z,101124.47
2022-08-17T23:58:43.046Z,101117.56
